• Join FlightAware (Why Join?)
  • Login
  • US Flag 
05:10AM EDT


 

Airport Tracker/Info


-or-


 

Live Flight TrackerFlight Track Log ✈ QXE2179 ✈ 26-Apr-2013 ✈ KSEA - KRDM

Flight Track Log - Related Links

Times and Time Zones

All times are in EDT time to prevent confusion due to time zone crossing. See the QXE2179 flight status page for this flight to view local times or setup timezone preferences in your user account.

Time Position Orientation Groundspeed Altitude Reporting Facility
EDT Latitude Longitude Course Direction KTS MPH feet Rate Location/Type
08:44PM 47.0206 -122.2967 165° South 296 341 11,600  Level Seattle Center
08:45PM 46.9428 -122.2581 161° South 298 343 13,100 1,380 Climbing Seattle Center
08:46PM 46.8644 -122.2194 161° South 300 345 14,500 1,380 Climbing Seattle Center
08:47PM 46.7867 -122.1811 161° South 299 344 16,000 1,440 Climbing Seattle Center
08:48PM 46.7097 -122.1431 161° South 295 339 17,500 1,380 Climbing Seattle Center
08:49PM 46.5215 -121.9598 165° South  Level Estimated
08:49PM 46.6197 -122.1044 164° South 288 331 18,900  Level Seattle Center
08:50PM 46.5411 -122.0719 164° South 292 336 19,000  Climbing Seattle Center
08:51PM 46.4550 -122.0328 163° South 319 367 19,000  Level Seattle Center
08:52PM 46.3686 -121.9981 164° South 326 375 19,000  Level Seattle Center
08:53PM 46.2839 -121.9611 163° South 323 372 19,000  Level Seattle Center
08:54PM 46.2017 -121.9286 165° South 318 366 19,000  Level Seattle Center
08:55PM 46.1156 -121.8939 164° South 321 369 19,000  Level Seattle Center
08:56PM 46.0308 -121.8583 164° South 317 365 19,000  Level Seattle Center
08:57PM 45.9294 -121.8189 165° South 313 360 19,000  Level Seattle Center
08:58PM 45.8394 -121.7792 163° South 327 376 19,000  Level Seattle Center
08:59PM 45.7539 -121.7439 164° South 322 371 19,000  Level Seattle Center
09:00PM 45.6678 -121.7094 164° South 322 371 19,000  Level Seattle Center
09:01PM 45.5822 -121.6753 164° South 320 368 19,000  Level Seattle Center
09:02PM 45.4981 -121.6411 164° South 317 365 19,000  Level Seattle Center
09:03PM 45.4094 -121.6053 164° South 313 360 19,000  Level Seattle Center
09:04PM 45.3272 -121.5719 164° South 310 357 19,000  Level Seattle Center
09:05PM 45.2458 -121.5403 165° South 304 350 19,000 -120 Level Seattle Center
09:06PM 45.1628 -121.5067 164° South 310 357 18,800 -720 Descending Seattle Center
09:07PM 45.0717 -121.4722 165° South 331 381 17,600 -1,380 Descending Seattle Center
09:08PM 44.9808 -121.4347 164° South 341 392 16,100 -1,560 Descending Seattle Center
09:09PM 44.8925 -121.4003 165° South 331 381 14,500 -1,620 Descending Seattle Center
09:10PM 44.8103 -121.3675 164° South 312 359 12,900 -1,680 Descending Seattle Center
09:11PM 44.7339 -121.3369 164° South 290 334 11,100 -1,680 Descending Seattle Center
09:12PM 44.6606 -121.3072 164° South 277 319 9,600 -1,320 Descending Seattle Center
09:13PM 44.5861 -121.2792 165° South 275 316 8,500 -1,020 Descending Seattle Center
09:14PM 44.5144 -121.2519 165° South 272 313 7,600 -1,020 Descending Seattle Center
09:15PM 44.4303 -121.2142 162° South 268 308 6,500 -1,020 Descending Seattle Center
09:16PM 44.3719 -121.1794 157° South 247 284 5,600 -1,200 Descending Seattle Center
09:17PM 44.3244 -121.1336 145° Southeast 223 257 4,100 -960 Descending Seattle Center
09:18PM 44.2783 -121.1025 154° Southeast 190 219 3,700 -540 Descending Seattle Center
09:19PM 44.2614 -121.1344 233° Southwest 161 185 3,100 -600 Descending Seattle Center